createdAt,value
2023-04-18T00:00:12.315Z,102229.81
2023-04-18T00:02:39.988Z,102248.13
2023-04-18T00:05:08.087Z,102236.72
2023-04-18T00:07:35.627Z,102248.13
2023-04-18T00:10:07.234Z,102237.09
2023-04-18T00:12:34.415Z,102246.97
2023-04-18T00:15:03.077Z,102237.75
2023-04-18T00:17:31.854Z,102241.91
2023-04-18T00:20:02.223Z,102249.38
2023-04-18T00:22:29.124Z,102232.81
2023-04-18T00:24:56.085Z,102231.88
2023-04-18T00:27:23.078Z,102225.69
2023-04-18T00:29:51.418Z,102231.34
2023-04-18T00:32:19.656Z,102231.44
2023-04-18T00:34:46.583Z,102238.69
2023-04-18T00:37:13.549Z,102256.56
2023-04-18T00:39:42.267Z,102241.22
2023-04-18T00:42:09.189Z,102236.16
2023-04-18T00:44:36.097Z,102228.59
2023-04-18T00:47:03.028Z,102248.72
2023-04-18T00:49:30.056Z,102245.56
2023-04-18T00:51:57.179Z,102222.91
2023-04-18T00:54:25.925Z,102230.09
2023-04-18T00:56:53.202Z,102227.91
2023-04-18T00:59:21.972Z,102241.00
2023-04-18T01:01:49.073Z,102208.94
2023-04-18T01:04:16.451Z,102263.69
2023-04-18T01:06:45.438Z,102231.16
2023-04-18T01:09:13.924Z,102247.72
2023-04-18T01:11:40.911Z,102247.38
2023-04-18T01:14:09.446Z,102236.69
2023-04-18T01:16:40.040Z,102246.59
2023-04-18T01:19:07.371Z,102248.44
2023-04-18T01:21:36.082Z,102235.50
2023-04-18T01:24:12.290Z,102241.47
2023-04-18T01:26:47.458Z,102235.09
2023-04-18T01:29:14.483Z,102240.66
2023-04-18T01:31:41.764Z,102228.19
2023-04-18T01:34:08.980Z,102237.94
2023-04-18T01:36:37.501Z,102245.38
2023-04-18T01:39:04.698Z,102233.41
2023-04-18T01:41:32.794Z,102243.03
2023-04-18T01:44:00.415Z,102246.84
2023-04-18T01:46:28.302Z,102243.22
2023-04-18T01:48:56.584Z,102251.75
2023-04-18T01:51:23.511Z,102258.59
2023-04-18T01:53:50.663Z,102261.41
2023-04-18T01:56:17.540Z,102229.25
2023-04-18T01:58:44.485Z,102251.06
2023-04-18T02:01:13.021Z,102259.09
2023-04-18T02:03:40.468Z,102256.31
2023-04-18T02:06:07.741Z,102234.78
2023-04-18T02:08:35.982Z,102250.47
2023-04-18T02:11:05.581Z,102234.84
2023-04-18T02:13:32.549Z,102246.53
2023-04-18T02:15:59.516Z,102235.16
2023-04-18T02:18:27.721Z,102250.28
2023-04-18T02:20:54.755Z,102255.03
2023-04-18T02:23:22.603Z,102265.56
2023-04-18T02:25:50.618Z,102250.25
2023-04-18T02:28:17.848Z,102257.09
2023-04-18T02:30:44.865Z,102242.59
2023-04-18T02:33:11.804Z,102246.38
2023-04-18T02:35:38.989Z,102232.44
2023-04-18T02:38:06.405Z,102240.75
2023-04-18T02:40:33.364Z,102246.88
2023-04-18T02:43:01.377Z,102262.31
2023-04-18T02:45:28.693Z,102240.69
2023-04-18T02:47:58.266Z,102266.19
2023-04-18T02:50:25.368Z,102238.28
2023-04-18T02:52:54.348Z,102266.56
2023-04-18T02:55:24.502Z,102262.28
2023-04-18T02:57:53.166Z,102256.38
2023-04-18T03:00:45.961Z,102248.19
2023-04-18T03:03:38.580Z,102267.69
2023-04-18T03:06:22.506Z,102282.00
2023-04-18T03:08:49.462Z,102281.44
2023-04-18T03:11:16.877Z,102270.09
2023-04-18T03:13:43.953Z,102253.50
2023-04-18T03:16:11.457Z,102259.09
2023-04-18T03:18:38.794Z,102249.69
2023-04-18T03:21:06.411Z,102258.28
2023-04-18T03:23:34.360Z,102239.13
2023-04-18T03:26:07.397Z,102271.66
2023-04-18T03:28:36.398Z,102248.00
2023-04-18T03:31:03.665Z,102234.94
2023-04-18T03:33:33.123Z,102246.25
2023-04-18T03:36:08.022Z,102263.66
2023-04-18T03:38:35.392Z,102268.84
2023-04-18T03:41:03.273Z,102255.38
2023-04-18T03:43:34.054Z,102272.13
2023-04-18T03:46:01.572Z,102278.13
2023-04-18T03:48:29.678Z,102267.88
2023-04-18T03:51:00.035Z,102288.03
2023-04-18T03:53:27.253Z,102264.53
2023-04-18T03:55:57.228Z,102272.28
2023-04-18T03:58:33.031Z,102290.59
2023-04-18T04:01:01.061Z,102283.56
2023-04-18T04:03:28.692Z,102284.59
2023-04-18T04:05:56.672Z,102278.56
2023-04-18T04:08:23.771Z,102273.88
2023-04-18T04:10:51.006Z,102280.38
2023-04-18T04:13:18.007Z,102290.16
2023-04-18T04:15:45.384Z,102282.66
2023-04-18T04:18:12.315Z,102264.53
2023-04-18T04:20:42.233Z,102286.78
2023-04-18T04:23:13.854Z,102277.69
2023-04-18T04:25:46.317Z,102295.25
2023-04-18T04:28:23.818Z,102282.69
2023-04-18T04:30:59.297Z,102285.19
2023-04-18T04:33:28.749Z,102285.28
2023-04-18T04:36:01.190Z,102308.06
2023-04-18T04:38:31.144Z,102283.78
2023-04-18T04:40:58.632Z,102282.19
2023-04-18T04:43:28.585Z,102317.81
2023-04-18T04:45:57.893Z,102292.38
2023-04-18T04:48:25.250Z,102302.84
2023-04-18T04:50:58.847Z,102324.91
2023-04-18T04:53:30.213Z,102324.91
2023-04-18T04:55:58.409Z,102320.78
2023-04-18T04:58:25.675Z,102318.28
2023-04-18T05:01:01.064Z,102322.69
2023-04-18T05:03:28.188Z,102328.81
2023-04-18T05:05:55.200Z,102305.13
2023-04-18T05:08:22.140Z,102310.34
2023-04-18T05:10:50.038Z,102311.34
2023-04-18T05:13:17.129Z,102299.09
2023-04-18T05:15:44.150Z,102317.63
2023-04-18T05:18:11.203Z,102286.81
2023-04-18T05:20:38.076Z,102309.00
2023-04-18T05:23:05.017Z,102309.81
2023-04-18T05:25:32.268Z,102298.34
2023-04-18T05:28:00.596Z,102327.13
2023-04-18T05:30:27.673Z,102300.03
2023-04-18T05:32:54.713Z,102330.91
2023-04-18T05:35:21.669Z,102329.81
2023-04-18T05:37:48.697Z,102322.81
2023-04-18T05:40:15.617Z,102326.38
2023-04-18T05:42:42.723Z,102345.56
2023-04-18T05:45:10.131Z,102324.44
2023-04-18T05:47:37.079Z,102335.75
2023-04-18T05:50:04.588Z,102314.59
2023-04-18T05:52:32.547Z,102346.28
2023-04-18T05:54:59.514Z,102335.56
2023-04-18T05:57:26.402Z,102348.56
2023-04-18T05:59:53.403Z,102337.16
2023-04-18T06:02:21.110Z,102343.94
2023-04-18T06:04:48.932Z,102336.19
2023-04-18T06:07:16.158Z,102352.81
2023-04-18T06:09:43.118Z,102353.56
2023-04-18T06:12:10.058Z,102350.31
2023-04-18T06:14:36.973Z,102341.44
2023-04-18T06:17:04.001Z,102345.63
2023-04-18T06:19:30.965Z,102352.81
2023-04-18T06:21:57.923Z,102350.06
2023-04-18T06:24:24.830Z,102374.66
2023-04-18T06:26:52.240Z,102343.03
2023-04-18T06:29:19.179Z,102345.53
2023-04-18T06:31:48.217Z,102367.38
2023-04-18T06:34:15.515Z,102382.88
2023-04-18T06:36:43.135Z,102363.06
2023-04-18T06:39:10.261Z,102368.16
2023-04-18T06:41:37.241Z,102349.66
2023-04-18T06:44:04.782Z,102358.41
2023-04-18T06:46:33.067Z,102383.13
2023-04-18T06:49:00.498Z,102377.50
2023-04-18T06:51:27.507Z,102350.38
2023-04-18T06:53:54.589Z,102378.50
2023-04-18T06:56:21.916Z,102386.31
2023-04-18T06:58:49.628Z,102380.66
2023-04-18T07:01:16.603Z,102374.50
2023-04-18T07:03:43.757Z,102371.03
2023-04-18T07:06:10.994Z,102385.66
2023-04-18T07:08:38.299Z,102383.72
2023-04-18T07:11:06.622Z,102376.84
2023-04-18T07:13:33.742Z,102397.72
2023-04-18T07:16:01.419Z,102374.53
2023-04-18T07:18:37.373Z,102391.44
2023-04-18T07:21:07.478Z,102392.94
2023-04-18T07:23:35.494Z,102385.41
2023-04-18T07:26:05.779Z,102360.44
2023-04-18T07:28:33.235Z,102372.72
2023-04-18T07:31:01.187Z,102389.69
2023-04-18T07:33:31.783Z,102380.06
2023-04-18T07:35:58.850Z,102387.81
2023-04-18T07:38:25.895Z,102391.88
2023-04-18T07:41:00.947Z,102368.97
2023-04-18T07:43:27.985Z,102382.09
2023-04-18T07:45:55.293Z,102393.56
2023-04-18T07:48:22.643Z,102378.69
2023-04-18T07:50:49.863Z,102373.88
2023-04-18T07:53:17.169Z,102399.75
2023-04-18T07:55:45.606Z,102397.09
2023-04-18T07:58:12.951Z,102382.38
2023-04-18T08:00:42.284Z,102395.31
2023-04-18T08:03:12.695Z,102361.50
2023-04-18T08:05:42.335Z,102385.06
2023-04-18T08:08:11.363Z,102387.47
2023-04-18T08:10:39.018Z,102398.13
2023-04-18T08:13:06.870Z,102368.00
2023-04-18T08:15:33.800Z,102398.63
2023-04-18T08:18:01.544Z,102395.69
2023-04-18T08:20:28.801Z,102390.44
2023-04-18T08:25:25.900Z,102385.13
2023-04-18T08:27:52.986Z,102379.72
2023-04-18T08:30:20.055Z,102381.28
2023-04-18T08:32:47.227Z,102366.31
2023-04-18T08:35:14.210Z,102393.81
2023-04-18T08:37:41.250Z,102396.38
2023-04-18T08:40:08.497Z,102383.03
2023-04-18T08:42:41.145Z,102401.03
2023-04-18T08:45:09.422Z,102386.41
2023-04-18T08:47:36.371Z,102404.84
2023-04-18T08:50:04.029Z,102368.81
2023-04-18T08:52:34.131Z,102364.88
2023-04-18T08:55:02.753Z,102384.13
2023-04-18T08:57:30.974Z,102399.97
2023-04-18T09:00:00.755Z,102416.13
2023-04-18T09:02:42.623Z,102390.78
2023-04-18T09:05:21.633Z,102408.66
2023-04-18T09:07:50.370Z,102400.78
2023-04-18T09:10:32.519Z,102412.19
2023-04-18T09:13:03.186Z,102409.94
2023-04-18T09:15:31.297Z,102404.44
2023-04-18T09:18:02.434Z,102410.72
2023-04-18T09:20:41.457Z,102399.88
2023-04-18T09:23:11.576Z,102423.41
2023-04-18T09:25:48.440Z,102419.69
2023-04-18T09:28:33.139Z,102402.50
2023-04-18T09:31:11.722Z,102413.16
2023-04-18T09:33:43.237Z,102415.44
2023-04-18T09:36:22.534Z,102397.16
2023-04-18T09:38:53.713Z,102407.28
2023-04-18T09:41:25.215Z,102412.59
2023-04-18T09:44:14.619Z,102418.84
2023-04-18T09:46:43.943Z,102414.81
2023-04-18T09:49:13.409Z,102396.91
2023-04-18T09:51:43.452Z,102407.34
2023-04-18T09:54:16.724Z,102400.06
2023-04-18T09:56:50.317Z,102411.94
2023-04-18T09:59:47.526Z,102410.94
2023-04-18T10:02:20.938Z,102399.91
2023-04-18T10:04:51.659Z,102402.88
2023-04-18T10:07:19.204Z,102405.75
2023-04-18T10:09:47.223Z,102369.00
2023-04-18T10:12:16.196Z,102383.72
2023-04-18T10:14:44.065Z,102394.88
2023-04-18T10:17:11.821Z,102379.44
2023-04-18T10:19:42.059Z,102380.22
2023-04-18T10:22:09.127Z,102367.13
2023-04-18T10:24:47.218Z,102396.19
2023-04-18T10:27:14.350Z,102385.16
2023-04-18T10:29:50.590Z,102377.94
2023-04-18T10:32:23.240Z,102382.00
2023-04-18T10:34:53.393Z,102368.34
2023-04-18T10:37:20.246Z,102378.53
2023-04-18T10:39:50.903Z,102373.38
2023-04-18T10:42:18.359Z,102366.75
2023-04-18T10:45:24.753Z,102368.31
2023-04-18T10:48:24.815Z,102387.63
2023-04-18T10:51:21.872Z,102385.50
2023-04-18T10:53:53.178Z,102373.72
2023-04-18T10:56:20.407Z,102377.88
2023-04-18T10:58:52.678Z,102354.31
2023-04-18T11:01:31.744Z,102370.59
2023-04-18T11:04:00.764Z,102360.00
2023-04-18T11:06:28.454Z,102354.66
2023-04-18T11:09:14.627Z,102356.97
2023-04-18T11:11:42.021Z,102358.31
2023-04-18T11:14:09.355Z,102344.72
2023-04-18T11:16:36.494Z,102343.09
2023-04-18T11:19:21.485Z,102348.50
2023-04-18T11:21:48.629Z,102345.09
2023-04-18T11:24:23.384Z,102346.16
2023-04-18T11:26:50.534Z,102341.47
2023-04-18T11:29:18.431Z,102333.63
2023-04-18T11:31:55.831Z,102341.16
2023-04-18T11:34:30.504Z,102325.41
2023-04-18T11:36:57.792Z,102319.25
2023-04-18T11:39:24.790Z,102333.06
2023-04-18T11:41:51.885Z,102324.00
2023-04-18T11:44:26.477Z,102322.94
2023-04-18T11:46:54.151Z,102319.25
2023-04-18T11:49:33.687Z,102302.75
2023-04-18T11:52:01.530Z,102312.06
2023-04-18T11:54:45.080Z,102313.22
2023-04-18T11:57:29.692Z,102316.22
2023-04-18T12:00:00.776Z,102313.66
2023-04-18T12:02:40.864Z,102300.53
2023-04-18T12:05:08.617Z,102320.31
2023-04-18T12:07:45.204Z,102321.94
2023-04-18T12:10:25.751Z,102318.19
2023-04-18T12:12:59.878Z,102323.25
2023-04-18T12:15:29.410Z,102307.94
2023-04-18T12:18:03.874Z,102312.09
2023-04-18T12:20:46.233Z,102315.81
2023-04-18T12:23:40.351Z,102318.44
2023-04-18T12:26:13.292Z,102311.47
2023-04-18T12:28:44.789Z,102320.81
2023-04-18T12:31:11.877Z,102318.41
2023-04-18T12:33:38.824Z,102310.28
2023-04-18T12:36:08.210Z,102303.13
2023-04-18T12:38:35.877Z,102312.75
2023-04-18T12:41:02.974Z,102311.56
2023-04-18T12:43:29.939Z,102306.22
2023-04-18T12:45:56.879Z,102272.63
2023-04-18T12:48:23.802Z,102308.94
2023-04-18T12:50:50.809Z,102299.34
2023-04-18T12:53:17.814Z,102299.81
2023-04-18T12:55:44.711Z,102306.69
2023-04-18T12:58:11.607Z,102296.88
2023-04-18T13:00:38.493Z,102302.31
2023-04-18T13:03:05.607Z,102281.03
2023-04-18T13:05:34.042Z,102307.31
2023-04-18T13:10:31.736Z,102281.44
2023-04-18T13:12:58.627Z,102275.66
2023-04-18T13:15:29.568Z,102294.75
2023-04-18T13:17:56.946Z,102280.03
2023-04-18T13:20:24.437Z,102257.06
2023-04-18T13:22:51.375Z,102286.53
2023-04-18T13:25:18.285Z,102280.25
2023-04-18T13:27:45.871Z,102275.50
2023-04-18T13:30:13.336Z,102268.78
2023-04-18T13:32:41.469Z,102292.34
2023-04-18T13:35:11.187Z,102287.97
2023-04-18T13:37:38.907Z,102295.63
2023-04-18T13:40:07.172Z,102283.72
2023-04-18T13:42:36.077Z,102289.75
2023-04-18T13:45:04.015Z,102292.47
2023-04-18T13:47:31.063Z,102272.66
2023-04-18T13:49:58.308Z,102288.38
2023-04-18T13:52:25.832Z,102298.41
2023-04-18T13:54:52.967Z,102274.09
2023-04-18T13:57:20.092Z,102280.00
2023-04-18T13:59:47.108Z,102285.28
2023-04-18T14:02:14.336Z,102302.50
2023-04-18T14:04:41.518Z,102290.34
2023-04-18T14:07:09.013Z,102296.13
2023-04-18T14:09:36.008Z,102283.75
2023-04-18T14:12:02.946Z,102289.63
2023-04-18T14:14:30.386Z,102297.91
2023-04-18T14:16:57.340Z,102286.41
2023-04-18T14:19:24.582Z,102303.25
2023-04-18T14:21:51.566Z,102299.97
2023-04-18T14:24:18.589Z,102288.94
2023-04-18T14:26:45.620Z,102301.41
2023-04-18T14:29:14.239Z,102298.69
2023-04-18T14:31:41.579Z,102277.50
2023-04-18T14:34:09.581Z,102275.47
2023-04-18T14:36:36.820Z,102285.50
2023-04-18T14:39:04.635Z,102289.63
2023-04-18T14:41:31.663Z,102295.00
2023-04-18T14:43:59.285Z,102293.75
2023-04-18T14:46:30.643Z,102282.03
2023-04-18T14:48:57.841Z,102278.91
2023-04-18T14:51:24.799Z,102288.38
2023-04-18T14:53:51.709Z,102278.91
2023-04-18T14:56:21.386Z,102275.53
2023-04-18T14:58:48.387Z,102275.38
2023-04-18T15:01:17.331Z,102274.34
2023-04-18T15:03:44.788Z,102265.94
2023-04-18T15:06:12.054Z,102266.75
2023-04-18T15:08:38.988Z,102244.16
2023-04-18T15:11:08.182Z,102253.56
2023-04-18T15:13:35.403Z,102260.88
2023-04-18T15:16:02.509Z,102254.81
2023-04-18T15:18:29.553Z,102271.84
2023-04-18T15:20:58.778Z,102279.59
2023-04-18T15:23:26.101Z,102279.19
2023-04-18T15:25:53.006Z,102262.00
2023-04-18T15:28:19.971Z,102265.38
2023-04-18T15:30:46.835Z,102266.69
2023-04-18T15:33:14.068Z,102269.41
2023-04-18T15:35:40.987Z,102266.63
2023-04-18T15:38:07.895Z,102268.84
2023-04-18T15:40:36.247Z,102259.09
2023-04-18T15:43:04.020Z,102264.03
2023-04-18T15:45:33.232Z,102275.06
2023-04-18T15:48:00.214Z,102265.03
2023-04-18T15:50:27.453Z,102271.41
2023-04-18T15:52:54.432Z,102259.47
2023-04-18T15:55:21.409Z,102276.25
2023-04-18T15:57:48.561Z,102253.66
2023-04-18T16:00:16.246Z,102276.34
2023-04-18T16:02:44.974Z,102288.88
2023-04-18T16:05:13.082Z,102274.94
2023-04-18T16:07:41.314Z,102285.81
2023-04-18T16:10:10.324Z,102265.06
2023-04-18T16:12:38.910Z,102284.72
2023-04-18T16:15:08.645Z,102278.31
2023-04-18T16:17:38.657Z,102252.41
2023-04-18T16:20:08.332Z,102282.00
2023-04-18T16:22:35.878Z,102259.63
2023-04-18T16:25:03.950Z,102264.22
2023-04-18T16:27:31.176Z,102260.41
2023-04-18T16:29:58.151Z,102268.00
2023-04-18T16:32:25.143Z,102266.63
2023-04-18T16:34:52.263Z,102263.25
2023-04-18T16:37:19.329Z,102271.81
2023-04-18T16:39:46.775Z,102278.00
2023-04-18T16:42:15.647Z,102269.44
2023-04-18T16:44:44.670Z,102271.22
2023-04-18T16:47:11.622Z,102278.84
2023-04-18T16:49:38.893Z,102278.22
2023-04-18T16:52:05.982Z,102281.16
2023-04-18T16:54:32.931Z,102290.59
2023-04-18T16:56:59.912Z,102269.75
2023-04-18T16:59:26.810Z,102251.53
2023-04-18T17:01:53.915Z,102286.16
2023-04-18T17:04:21.901Z,102266.94
2023-04-18T17:06:50.965Z,102281.59
2023-04-18T17:09:19.717Z,102276.31
2023-04-18T17:11:46.961Z,102282.06
2023-04-18T17:14:14.824Z,102270.53
2023-04-18T17:16:42.475Z,102272.47
2023-04-18T17:19:10.594Z,102266.75
2023-04-18T17:21:38.512Z,102261.78
2023-04-18T17:24:07.017Z,102249.38
2023-04-18T17:26:37.021Z,102265.34
2023-04-18T17:29:04.619Z,102263.63
2023-04-18T17:31:32.471Z,102282.00
2023-04-18T17:34:00.089Z,102290.13
2023-04-18T17:36:27.759Z,102263.25
2023-04-18T17:38:54.888Z,102285.53
2023-04-18T17:41:22.083Z,102294.09
2023-04-18T17:43:51.191Z,102270.16
2023-04-18T17:46:18.460Z,102261.94
2023-04-18T17:48:45.403Z,102281.72
2023-04-18T17:51:12.423Z,102291.44
2023-04-18T17:53:39.375Z,102291.91
2023-04-18T17:56:06.444Z,102301.31
2023-04-18T17:58:33.378Z,102289.56
2023-04-18T18:01:00.544Z,102302.63
2023-04-18T18:03:27.775Z,102309.13
2023-04-18T18:05:55.048Z,102305.88
2023-04-18T18:08:22.580Z,102263.16
2023-04-18T18:10:49.793Z,102279.28
2023-04-18T18:13:16.878Z,102301.03
2023-04-18T18:15:43.822Z,102288.66
2023-04-18T18:18:10.907Z,102290.97
2023-04-18T18:20:42.874Z,102308.75
2023-04-18T18:23:09.790Z,102292.31
2023-04-18T18:25:37.688Z,102327.53
2023-04-18T18:28:04.796Z,102339.69
2023-04-18T18:30:31.806Z,102304.31
2023-04-18T18:32:59.090Z,102330.19
2023-04-18T18:35:26.007Z,102331.00
2023-04-18T18:37:52.956Z,102349.66
2023-04-18T18:40:20.132Z,102325.88
2023-04-18T18:42:49.372Z,102304.97
2023-04-18T18:45:16.373Z,102324.69
2023-04-18T18:47:43.634Z,102352.25
2023-04-18T18:50:10.887Z,102350.28
2023-04-18T18:52:40.559Z,102331.34
2023-04-18T18:55:08.374Z,102314.88
2023-04-18T18:57:35.375Z,102330.84
2023-04-18T19:00:02.413Z,102367.41
2023-04-18T19:02:29.523Z,102328.81
2023-04-18T19:04:56.682Z,102353.34
2023-04-18T19:07:23.750Z,102369.47
2023-04-18T19:09:50.665Z,102343.53
2023-04-18T19:12:18.365Z,102351.84
2023-04-18T19:14:46.806Z,102348.94
2023-04-18T19:17:13.717Z,102345.00
2023-04-18T19:19:41.989Z,102341.06
2023-04-18T19:22:09.152Z,102347.75
2023-04-18T19:24:36.066Z,102368.34
2023-04-18T19:27:03.306Z,102367.28
2023-04-18T19:29:32.630Z,102343.88
2023-04-18T19:32:00.504Z,102356.22
2023-04-18T19:34:27.533Z,102357.88
2023-04-18T19:36:54.436Z,102346.75
2023-04-18T19:39:21.609Z,102371.59
2023-04-18T19:41:48.507Z,102380.56
2023-04-18T19:44:16.143Z,102342.38
2023-04-18T19:46:43.062Z,102360.81
2023-04-18T19:49:09.987Z,102373.63
2023-04-18T19:51:37.038Z,102364.72
2023-04-18T19:54:04.740Z,102359.47
2023-04-18T19:56:31.820Z,102352.59
2023-04-18T19:58:59.029Z,102381.47
2023-04-18T20:01:26.441Z,102358.66
2023-04-18T20:03:54.942Z,102386.72
2023-04-18T20:06:22.051Z,102387.63
2023-04-18T20:08:48.944Z,102377.84
2023-04-18T20:11:15.905Z,102380.81
2023-04-18T20:13:42.888Z,102379.59
2023-04-18T20:16:11.149Z,102378.50
2023-04-18T20:18:40.083Z,102391.56
2023-04-18T20:21:08.877Z,102371.50
2023-04-18T20:23:36.795Z,102395.13
2023-04-18T20:26:04.368Z,102389.00
2023-04-18T20:28:32.006Z,102370.81
2023-04-18T20:30:59.224Z,102377.16
2023-04-18T20:33:26.230Z,102388.44
2023-04-18T20:35:54.706Z,102390.34
2023-04-18T20:38:26.174Z,102385.72
2023-04-18T20:40:54.049Z,102368.47
2023-04-18T20:43:21.303Z,102387.13
2023-04-18T20:45:51.574Z,102374.13
2023-04-18T20:48:18.969Z,102383.91
2023-04-18T20:50:51.144Z,102378.66
2023-04-18T20:53:22.414Z,102389.72
2023-04-18T20:55:49.415Z,102373.50
2023-04-18T20:58:16.739Z,102362.28
2023-04-18T21:00:44.802Z,102386.06
2023-04-18T21:03:17.460Z,102391.56
2023-04-18T21:05:45.672Z,102403.31
2023-04-18T21:08:12.654Z,102376.13
2023-04-18T21:10:39.801Z,102416.03
2023-04-18T21:13:06.859Z,102394.19
2023-04-18T21:15:35.723Z,102410.97
2023-04-18T21:18:02.707Z,102387.63
2023-04-18T21:20:29.711Z,102385.69
2023-04-18T21:22:56.592Z,102397.13
2023-04-18T21:25:23.561Z,102379.53
2023-04-18T21:27:50.944Z,102392.59
2023-04-18T21:30:18.193Z,102408.44
2023-04-18T21:32:46.064Z,102390.16
2023-04-18T21:35:13.370Z,102382.13
2023-04-18T21:37:40.276Z,102390.31
2023-04-18T21:40:08.072Z,102384.47
2023-04-18T21:42:37.254Z,102395.66
2023-04-18T21:45:06.111Z,102407.78
2023-04-18T21:47:33.369Z,102412.38
2023-04-18T21:50:00.343Z,102389.75
2023-04-18T21:52:27.347Z,102410.97
2023-04-18T21:54:54.302Z,102391.19
2023-04-18T21:57:21.274Z,102391.66
2023-04-18T21:59:48.191Z,102402.06
2023-04-18T22:02:15.472Z,102378.44
2023-04-18T22:04:45.557Z,102406.31
2023-04-18T22:07:12.550Z,102401.31
2023-04-18T22:09:39.777Z,102389.06
2023-04-18T22:12:07.685Z,102399.16
2023-04-18T22:14:35.154Z,102414.91
2023-04-18T22:17:04.708Z,102373.84
2023-04-18T22:19:31.750Z,102407.75
2023-04-18T22:21:58.931Z,102394.94
2023-04-18T22:24:26.022Z,102396.34
2023-04-18T22:26:53.299Z,102399.88
2023-04-18T22:29:20.230Z,102408.91
2023-04-18T22:31:47.173Z,102387.47
2023-04-18T22:34:14.350Z,102392.69
2023-04-18T22:36:42.744Z,102389.44
2023-04-18T22:39:09.702Z,102395.50
2023-04-18T22:41:36.676Z,102409.34
2023-04-18T22:44:04.635Z,102413.47
2023-04-18T22:46:32.751Z,102421.78
2023-04-18T22:48:59.702Z,102400.16
2023-04-18T22:51:28.625Z,102405.63
2023-04-18T22:53:56.266Z,102405.63
2023-04-18T22:56:23.267Z,102396.44
2023-04-18T22:58:50.175Z,102370.41
2023-04-18T23:01:17.175Z,102420.59
2023-04-18T23:03:44.730Z,102417.03
2023-04-18T23:06:11.882Z,102416.72
2023-04-18T23:08:38.910Z,102411.69
2023-04-18T23:11:05.960Z,102435.91
2023-04-18T23:13:32.898Z,102410.50
2023-04-18T23:15:59.820Z,102401.06
2023-04-18T23:18:29.963Z,102418.53
2023-04-18T23:20:56.941Z,102386.22
2023-04-18T23:23:23.846Z,102402.88
2023-04-18T23:25:51.042Z,102406.53
2023-04-18T23:28:18.382Z,102404.94
2023-04-18T23:30:45.479Z,102387.50
2023-04-18T23:33:12.387Z,102414.78
2023-04-18T23:35:39.317Z,102388.53
2023-04-18T23:38:06.239Z,102411.28
2023-04-18T23:40:42.130Z,102399.56
2023-04-18T23:43:09.058Z,102399.41
2023-04-18T23:45:36.560Z,102409.16
2023-04-18T23:48:03.742Z,102405.25
2023-04-18T23:50:30.680Z,102416.03
2023-04-18T23:52:57.640Z,102387.72
2023-04-18T23:55:24.613Z,102395.38
2023-04-18T23:57:51.528Z,102393.41
